Time;durP1;ratioP1;P1;durP2;ratioP2;P2;SDS_P1;SDS_P2;PMS_P1;PMS_P2;Temp;Humidity;BMP_temperature;BMP_pressure;BME280_temperature;BME280_humidity;BME280_pressure;Samples;Min_cycle;Max_cycle;Signal;HPM_P1;HPM_P2
2023/11/23 00:00:33;;;;;;;;;;;19.40;66.00;;;;;;5002841;28;1899;-72
2023/11/23 00:02:58;;;;;;;;;;;19.40;66.00;;;;;;5007456;28;1707;-72
2023/11/23 00:05:24;;;;;;;;;;;19.40;66.00;;;;;;5006869;28;1470;-72
2023/11/23 00:07:49;;;;;;;;;;;19.40;66.00;;;;;;4993337;28;1596;-72
2023/11/23 00:10:15;;;;;;;;;;;19.40;66.00;;;;;;4988016;28;1442;-72
2023/11/23 00:12:43;;;;;;;;;;;19.40;66.00;;;;;;5005953;28;1522;-72
2023/11/23 00:15:09;;;;;;;;;;;19.40;66.00;;;;;;5004167;28;1413;-71
2023/11/23 00:17:34;;;;;;;;;;;19.40;66.00;;;;;;5004883;28;1481;-72
2023/11/23 00:20:00;;;;;;;;;;;19.40;66.00;;;;;;5006527;28;1914;-72
2023/11/23 00:22:29;;;;;;;;;;;19.40;66.00;;;;;;5003073;28;1312;-71
2023/11/23 00:24:54;;;;;;;;;;;19.40;66.00;;;;;;5005152;28;1487;-71
2023/11/23 00:27:20;;;;;;;;;;;19.40;66.00;;;;;;4993215;28;1263;-71
2023/11/23 00:29:45;;;;;;;;;;;19.40;66.00;;;;;;5002515;28;1626;-72
2023/11/23 00:32:12;;;;;;;;;;;19.40;66.00;;;;;;5006229;28;1099;-72
2023/11/23 00:34:37;;;;;;;;;;;19.40;66.00;;;;;;4992750;28;1420;-71
2023/11/23 00:37:03;;;;;;;;;;;19.40;66.00;;;;;;5002462;28;1446;-72
2023/11/23 00:39:28;;;;;;;;;;;19.40;66.00;;;;;;4984954;28;1891;-72
2023/11/23 00:41:54;;;;;;;;;;;19.50;66.00;;;;;;4993173;28;1703;-72
2023/11/23 00:44:19;;;;;;;;;;;19.50;66.10;;;;;;5004951;28;1484;-72
2023/11/23 00:46:45;;;;;;;;;;;19.40;66.00;;;;;;5002221;28;1358;-72
2023/11/23 00:49:10;;;;;;;;;;;19.40;66.00;;;;;;5006958;28;1294;-71
2023/11/23 00:51:36;;;;;;;;;;;19.40;66.00;;;;;;5006914;28;1205;-72
2023/11/23 00:54:04;;;;;;;;;;;19.40;66.00;;;;;;4989566;28;1263;-72
2023/11/23 00:56:30;;;;;;;;;;;19.40;66.00;;;;;;5003424;28;1151;-72
2023/11/23 00:58:55;;;;;;;;;;;19.40;66.00;;;;;;5002913;28;1971;-71
2023/11/23 01:01:21;;;;;;;;;;;19.40;66.00;;;;;;4985754;28;1490;-72
2023/11/23 01:03:46;;;;;;;;;;;19.40;66.00;;;;;;5003841;28;1954;-72
2023/11/23 01:06:12;;;;;;;;;;;19.40;66.00;;;;;;5003924;28;1407;-72
2023/11/23 01:08:37;;;;;;;;;;;19.40;66.00;;;;;;4983068;28;1420;-72
2023/11/23 01:11:03;;;;;;;;;;;19.40;66.00;;;;;;5005405;28;1260;-71
2023/11/23 01:13:31;;;;;;;;;;;19.40;66.00;;;;;;5002377;28;1407;-71
2023/11/23 01:15:57;;;;;;;;;;;19.40;66.10;;;;;;4991882;28;1834;-72
2023/11/23 01:18:23;;;;;;;;;;;19.40;66.10;;;;;;5004590;28;1478;-72
2023/11/23 01:20:50;;;;;;;;;;;19.40;66.10;;;;;;5001142;28;1956;-72
2023/11/23 01:23:16;;;;;;;;;;;19.40;66.10;;;;;;5002229;28;1521;-72
2023/11/23 01:25:41;;;;;;;;;;;19.40;66.10;;;;;;5001032;28;1558;-71
2023/11/23 01:28:07;;;;;;;;;;;19.40;66.10;;;;;;5003202;28;1454;-71
2023/11/23 01:30:32;;;;;;;;;;;19.40;66.10;;;;;;4997009;28;1395;-72
2023/11/23 01:32:57;;;;;;;;;;;19.40;66.10;;;;;;5004822;28;1497;-72
2023/11/23 01:35:23;;;;;;;;;;;19.40;66.10;;;;;;5003494;28;1393;-71
2023/11/23 01:37:48;;;;;;;;;;;19.40;66.20;;;;;;5005412;28;1553;-72
2023/11/23 01:40:15;;;;;;;;;;;19.40;66.10;;;;;;5004049;28;1946;-72
2023/11/23 01:42:41;;;;;;;;;;;19.40;66.10;;;;;;5006563;28;1125;-71
2023/11/23 01:45:09;;;;;;;;;;;19.40;66.10;;;;;;4993272;28;1373;-71
2023/11/23 01:47:36;;;;;;;;;;;19.40;66.20;;;;;;5002667;28;1409;-72
2023/11/23 01:50:03;;;;;;;;;;;19.40;66.20;;;;;;4986332;28;1454;-72
2023/11/23 01:52:29;;;;;;;;;;;19.40;66.20;;;;;;4984818;28;1343;-72
2023/11/23 01:54:55;;;;;;;;;;;19.40;66.20;;;;;;5000751;28;1833;-72
2023/11/23 01:57:21;;;;;;;;;;;19.30;66.20;;;;;;4999926;28;1285;-71
2023/11/23 01:59:46;;;;;;;;;;;19.30;66.10;;;;;;5000451;28;1965;-72
2023/11/23 02:02:12;;;;;;;;;;;19.40;66.30;;;;;;4985538;28;1485;-72
2023/11/23 02:04:37;;;;;;;;;;;19.30;66.20;;;;;;5003987;28;1368;-71
2023/11/23 02:07:03;;;;;;;;;;;19.40;66.30;;;;;;5002609;28;1686;-72
2023/11/23 02:09:29;;;;;;;;;;;19.30;66.20;;;;;;4999098;28;1971;-72
2023/11/23 02:11:55;;;;;;;;;;;19.30;66.20;;;;;;5002598;28;1854;-72
2023/11/23 02:14:21;;;;;;;;;;;19.30;66.20;;;;;;5001879;28;1773;-70
2023/11/23 02:16:46;;;;;;;;;;;19.40;66.30;;;;;;4987301;28;1597;-71
2023/11/23 02:19:11;;;;;;;;;;;19.30;66.20;;;;;;5002435;28;1902;-72
2023/11/23 02:21:37;;;;;;;;;;;19.40;66.30;;;;;;5001264;28;1319;-71
2023/11/23 02:24:05;;;;;;;;;;;19.30;66.20;;;;;;5003305;28;1434;-72
2023/11/23 02:26:31;;;;;;;;;;;19.30;66.20;;;;;;5002184;28;1349;-71
2023/11/23 02:28:57;;;;;;;;;;;19.30;66.20;;;;;;5003186;28;1333;-71
2023/11/23 02:31:22;;;;;;;;;;;19.40;66.30;;;;;;5003080;28;1362;-71
2023/11/23 02:33:48;;;;;;;;;;;19.30;66.20;;;;;;5000868;28;1382;-71
2023/11/23 02:36:13;;;;;;;;;;;19.30;66.30;;;;;;5004828;28;1362;-71
2023/11/23 02:38:38;;;;;;;;;;;19.30;66.30;;;;;;5004691;28;1910;-71
2023/11/23 02:41:04;;;;;;;;;;;19.30;66.30;;;;;;5001342;28;1372;-71
2023/11/23 02:43:30;;;;;;;;;;;19.30;66.30;;;;;;5002230;28;1370;-71
2023/11/23 02:45:55;;;;;;;;;;;19.30;66.30;;;;;;5002224;28;1757;-70
2023/11/23 02:48:21;;;;;;;;;;;19.30;66.20;;;;;;4985665;28;1729;-71
2023/11/23 02:50:47;;;;;;;;;;;19.30;66.30;;;;;;4988096;28;1662;-71
2023/11/23 02:53:27;;;;;;;;;;;19.30;66.30;;;;;;5001334;28;1418;-71
2023/11/23 02:55:53;;;;;;;;;;;19.30;66.30;;;;;;5001925;28;1454;-70
2023/11/23 02:58:18;;;;;;;;;;;19.30;66.30;;;;;;4988259;28;1278;-70
2023/11/23 03:00:44;;;;;;;;;;;19.30;66.30;;;;;;4999227;28;2009;-69
2023/11/23 03:03:09;;;;;;;;;;;19.30;66.30;;;;;;5002809;28;1730;-70
2023/11/23 03:05:35;;;;;;;;;;;19.30;66.30;;;;;;4999389;28;1780;-70
2023/11/23 03:08:00;;;;;;;;;;;19.30;66.30;;;;;;5001709;28;1526;-69
2023/11/23 03:10:26;;;;;;;;;;;19.30;66.30;;;;;;5001172;28;1796;-70
2023/11/23 03:12:51;;;;;;;;;;;19.30;66.30;;;;;;4999586;28;1442;-70
2023/11/23 03:15:17;;;;;;;;;;;19.30;66.30;;;;;;4985121;28;1735;-70
2023/11/23 03:17:43;;;;;;;;;;;19.30;66.30;;;;;;5001976;28;1366;-70
2023/11/23 03:20:10;;;;;;;;;;;19.30;66.30;;;;;;5000580;28;1959;-69
2023/11/23 03:22:35;;;;;;;;;;;19.30;66.30;;;;;;5004879;28;1467;-70
2023/11/23 03:25:01;;;;;;;;;;;19.30;66.30;;;;;;4983432;28;1456;-71
2023/11/23 03:27:26;;;;;;;;;;;19.30;66.30;;;;;;4999901;28;1562;-71
2023/11/23 03:29:52;;;;;;;;;;;19.30;66.30;;;;;;5003349;28;1321;-71
2023/11/23 03:32:17;;;;;;;;;;;19.30;66.40;;;;;;5001316;28;1442;-72
2023/11/23 03:34:43;;;;;;;;;;;19.30;66.40;;;;;;4999170;28;1523;-72
2023/11/23 03:37:08;;;;;;;;;;;19.30;66.40;;;;;;5000098;28;1095;-72
2023/11/23 03:39:34;;;;;;;;;;;19.30;66.40;;;;;;4983806;28;1902;-71
2023/11/23 03:42:00;;;;;;;;;;;19.30;66.40;;;;;;5001463;28;1451;-71
2023/11/23 03:44:26;;;;;;;;;;;19.30;66.40;;;;;;5003685;28;1289;-71
2023/11/23 03:46:52;;;;;;;;;;;19.30;66.50;;;;;;5000469;28;1336;-71
2023/11/23 03:49:18;;;;;;;;;;;19.30;66.40;;;;;;5002432;28;1512;-71
2023/11/23 03:51:44;;;;;;;;;;;19.30;66.40;;;;;;5000348;28;1610;-71
2023/11/23 03:54:09;;;;;;;;;;;19.30;66.50;;;;;;4981999;28;1536;-70
2023/11/23 03:56:37;;;;;;;;;;;19.30;66.50;;;;;;4998332;28;1444;-71
2023/11/23 03:59:03;;;;;;;;;;;19.30;66.50;;;;;;5000534;28;1891;-74
2023/11/23 04:01:29;;;;;;;;;;;19.30;66.50;;;;;;5004274;28;1281;-74
2023/11/23 04:03:54;;;;;;;;;;;19.30;66.50;;;;;;5000270;28;1834;-74
2023/11/23 04:06:20;;;;;;;;;;;19.30;66.50;;;;;;5001368;28;1369;-74
2023/11/23 04:08:47;;;;;;;;;;;19.30;66.50;;;;;;5001401;28;1428;-74
2023/11/23 04:11:13;;;;;;;;;;;19.30;66.50;;;;;;5001201;28;1285;-74
2023/11/23 04:13:38;;;;;;;;;;;19.30;66.60;;;;;;4964447;28;1319;-73
2023/11/23 04:16:04;;;;;;;;;;;19.30;66.50;;;;;;4984730;28;1371;-70
2023/11/23 04:18:29;;;;;;;;;;;19.30;67.30;;;;;;4988793;28;1475;-70
2023/11/23 04:20:55;;;;;;;;;;;19.30;66.60;;;;;;5003324;28;1906;-71
2023/11/23 04:23:20;;;;;;;;;;;19.30;66.50;;;;;;5000909;28;1281;-71
2023/11/23 04:25:45;;;;;;;;;;;19.30;66.60;;;;;;4989347;28;1379;-71
2023/11/23 04:28:11;;;;;;;;;;;19.30;66.60;;;;;;5000483;28;1274;-70
2023/11/23 04:30:36;;;;;;;;;;;19.30;66.60;;;;;;5001334;28;1362;-71
2023/11/23 04:33:02;;;;;;;;;;;19.20;66.60;;;;;;4999433;28;1436;-71
2023/11/23 04:35:30;;;;;;;;;;;19.20;66.60;;;;;;4999683;28;1384;-70
2023/11/23 04:37:56;;;;;;;;;;;19.20;66.60;;;;;;5000308;28;1784;-70
2023/11/23 04:40:21;;;;;;;;;;;19.30;66.70;;;;;;4997389;28;1966;-72
2023/11/23 04:42:46;;;;;;;;;;;19.20;66.60;;;;;;4984676;28;1325;-73
2023/11/23 04:45:12;;;;;;;;;;;19.20;66.60;;;;;;5003828;28;1276;-72
2023/11/23 04:47:37;;;;;;;;;;;19.30;66.70;;;;;;5005197;28;1554;-73
2023/11/23 04:50:03;;;;;;;;;;;19.20;66.60;;;;;;5006798;28;1378;-73
2023/11/23 04:52:29;;;;;;;;;;;19.20;66.70;;;;;;5004635;28;1007;-73
2023/11/23 04:54:54;;;;;;;;;;;19.20;66.70;;;;;;4992850;28;1594;-73
2023/11/23 04:57:19;;;;;;;;;;;19.20;66.70;;;;;;5005489;28;1259;-73
2023/11/23 04:59:45;;;;;;;;;;;19.20;66.70;;;;;;4994593;28;1898;-73
2023/11/23 05:02:10;;;;;;;;;;;19.20;66.70;;;;;;4987528;28;1491;-72
2023/11/23 05:04:36;;;;;;;;;;;19.20;66.70;;;;;;4990472;28;1558;-72
2023/11/23 05:07:01;;;;;;;;;;;19.20;66.70;;;;;;5003109;28;1490;-72
2023/11/23 05:09:27;;;;;;;;;;;19.20;66.70;;;;;;4986815;28;1589;-72
2023/11/23 05:11:53;;;;;;;;;;;19.20;66.70;;;;;;5002294;28;1551;-72
2023/11/23 05:14:19;;;;;;;;;;;19.30;66.60;;;;;;5008443;28;1519;-71
2023/11/23 05:16:44;;;;;;;;;;;19.30;66.50;;;;;;5003555;28;1430;-71
2023/11/23 05:19:10;;;;;;;;;;;19.30;66.40;;;;;;5003882;28;1972;-71
2023/11/23 05:21:35;;;;;;;;;;;19.40;66.30;;;;;;5003820;28;1472;-71
2023/11/23 05:24:01;;;;;;;;;;;19.50;66.20;;;;;;5004359;28;1477;-71
2023/11/23 05:26:26;;;;;;;;;;;19.50;66.00;;;;;;5002032;28;1509;-70
2023/11/23 05:28:52;;;;;;;;;;;19.60;65.80;;;;;;5003137;28;1561;-72
2023/11/23 05:31:17;;;;;;;;;;;19.60;65.50;;;;;;5004279;28;1374;-73
2023/11/23 05:33:43;;;;;;;;;;;19.70;65.20;;;;;;5004241;28;1348;-70
2023/11/23 05:36:10;;;;;;;;;;;19.80;65.20;;;;;;5003700;28;1543;-70
2023/11/23 05:38:35;;;;;;;;;;;19.80;64.90;;;;;;5004297;28;1412;-70
2023/11/23 05:41:01;;;;;;;;;;;19.80;64.70;;;;;;5004399;28;1890;-69
2023/11/23 05:43:26;;;;;;;;;;;19.90;64.60;;;;;;5003413;28;1121;-70
2023/11/23 05:45:52;;;;;;;;;;;19.90;64.40;;;;;;5004741;28;1645;-70
2023/11/23 05:48:17;;;;;;;;;;;20.00;64.40;;;;;;5002840;28;1437;-72
2023/11/23 05:50:42;;;;;;;;;;;19.90;64.20;;;;;;5003013;28;1371;-72
2023/11/23 05:53:08;;;;;;;;;;;20.00;64.10;;;;;;5003030;28;1382;-72
2023/11/23 05:55:33;;;;;;;;;;;20.00;64.00;;;;;;5004546;28;1207;-72
2023/11/23 05:57:59;;;;;;;;;;;20.00;63.90;;;;;;5008521;28;1427;-72
2023/11/23 06:00:25;;;;;;;;;;;20.10;63.90;;;;;;5003540;28;1973;-71
2023/11/23 06:02:50;;;;;;;;;;;20.10;63.80;;;;;;5004716;28;1457;-70
2023/11/23 06:05:17;;;;;;;;;;;20.10;63.80;;;;;;4991218;28;1445;-70
2023/11/23 06:07:42;;;;;;;;;;;20.10;63.70;;;;;;5001142;28;1482;-71
2023/11/23 06:10:11;;;;;;;;;;;20.10;63.70;;;;;;5003203;28;1447;-72
2023/11/23 06:12:38;;;;;;;;;;;20.10;63.60;;;;;;5003120;28;1530;-71
2023/11/23 06:15:04;;;;;;;;;;;20.10;63.60;;;;;;4989818;28;1495;-71
2023/11/23 06:17:30;;;;;;;;;;;20.10;64.40;;;;;;5002771;28;1461;-71
2023/11/23 06:19:55;;;;;;;;;;;20.10;63.60;;;;;;5002402;28;2004;-72
2023/11/23 06:22:21;;;;;;;;;;;20.10;63.50;;;;;;4992055;28;1375;-71
2023/11/23 06:24:47;;;;;;;;;;;20.10;63.50;;;;;;5002307;28;1292;-74
2023/11/23 06:27:13;;;;;;;;;;;20.10;63.50;;;;;;5003766;28;2077;-74
2023/11/23 06:29:38;;;;;;;;;;;20.10;63.50;;;;;;5002610;28;1343;-73
2023/11/23 06:32:04;;;;;;;;;;;20.10;63.50;;;;;;5004325;28;1374;-72
2023/11/23 06:34:29;;;;;;;;;;;20.10;63.50;;;;;;4999617;28;1317;-71
2023/11/23 06:36:55;;;;;;;;;;;20.10;63.50;;;;;;5003441;28;1228;-71
2023/11/23 06:39:26;;;;;;;;;;;20.10;63.50;;;;;;5002692;28;1902;-72
2023/11/23 06:41:53;;;;;;;;;;;20.10;63.50;;;;;;5008636;28;865;-71
2023/11/23 06:44:22;;;;;;;;;;;20.10;63.50;;;;;;5004760;28;1268;-71
2023/11/23 06:46:47;;;;;;;;;;;20.20;63.60;;;;;;4991931;28;1260;-72
2023/11/23 06:49:12;;;;;;;;;;;20.10;63.50;;;;;;5005617;28;1406;-71
2023/11/23 06:51:39;;;;;;;;;;;20.10;63.50;;;;;;5002775;28;1504;-70
2023/11/23 06:54:05;;;;;;;;;;;20.10;63.50;;;;;;5002701;28;1454;-71
2023/11/23 06:56:31;;;;;;;;;;;20.10;63.60;;;;;;5003101;28;1344;-71
2023/11/23 06:58:58;;;;;;;;;;;20.10;63.50;;;;;;5001200;28;1930;-71
2023/11/23 07:01:23;;;;;;;;;;;20.10;63.60;;;;;;5004909;28;1480;-73
2023/11/23 07:03:49;;;;;;;;;;;20.10;63.60;;;;;;4999210;28;1300;-72
2023/11/23 07:06:16;;;;;;;;;;;20.10;63.60;;;;;;5001327;28;1484;-71
2023/11/23 07:08:41;;;;;;;;;;;20.10;63.60;;;;;;4990059;28;1429;-71
2023/11/23 07:11:07;;;;;;;;;;;20.10;63.60;;;;;;4981134;28;1523;-71
2023/11/23 07:13:33;;;;;;;;;;;20.10;63.70;;;;;;4999783;28;1537;-71
2023/11/23 07:16:02;;;;;;;;;;;20.10;63.70;;;;;;4989640;28;1450;-71
2023/11/23 07:18:28;;;;;;;;;;;20.10;63.70;;;;;;4991060;28;1311;-71
2023/11/23 07:20:55;;;;;;;;;;;20.10;63.80;;;;;;4981652;28;1927;-71
2023/11/23 07:23:20;;;;;;;;;;;20.10;63.80;;;;;;5001859;28;1419;-71
2023/11/23 07:25:46;;;;;;;;;;;20.10;63.80;;;;;;5001795;28;1510;-71
2023/11/23 07:28:12;;;;;;;;;;;20.00;63.80;;;;;;5004502;28;1741;-71
2023/11/23 07:30:43;;;;;;;;;;;20.10;64.00;;;;;;4985244;28;1391;-70
2023/11/23 07:33:08;;;;;;;;;;;20.00;63.90;;;;;;4972980;28;1531;-73
2023/11/23 07:35:34;;;;;;;;;;;20.00;63.90;;;;;;5000799;28;1468;-72
2023/11/23 07:38:00;;;;;;;;;;;20.00;64.00;;;;;;5002471;28;1302;-71
2023/11/23 07:40:25;;;;;;;;;;;20.00;64.00;;;;;;4990857;28;1938;-71
2023/11/23 07:42:51;;;;;;;;;;;20.00;64.10;;;;;;5002814;28;1390;-71
2023/11/23 07:45:16;;;;;;;;;;;20.00;64.10;;;;;;4989179;28;1299;-71
2023/11/23 07:47:42;;;;;;;;;;;20.00;64.20;;;;;;4990614;28;1475;-71
2023/11/23 07:50:08;;;;;;;;;;;20.00;64.30;;;;;;5000030;28;1458;-71
2023/11/23 07:52:33;;;;;;;;;;;19.90;64.20;;;;;;5001308;28;1557;-71
2023/11/23 07:54:59;;;;;;;;;;;20.00;64.30;;;;;;5001172;28;1661;-72
2023/11/23 07:57:24;;;;;;;;;;;19.90;64.30;;;;;;4985177;28;1333;-72
2023/11/23 07:59:56;;;;;;;;;;;19.90;64.40;;;;;;4997683;28;1956;-72
2023/11/23 08:02:23;;;;;;;;;;;19.90;64.40;;;;;;4988938;28;1547;-72
2023/11/23 08:04:49;;;;;;;;;;;19.90;64.50;;;;;;5003064;28;1498;-71
2023/11/23 08:07:14;;;;;;;;;;;19.90;64.50;;;;;;5002529;28;1241;-72
2023/11/23 08:09:40;;;;;;;;;;;19.90;64.60;;;;;;4999703;28;1389;-71
2023/11/23 08:12:09;;;;;;;;;;;19.90;64.60;;;;;;5001320;28;1336;-73
2023/11/23 08:14:37;;;;;;;;;;;19.90;64.60;;;;;;5002216;28;1357;-72
2023/11/23 08:17:03;;;;;;;;;;;19.90;64.60;;;;;;4989406;28;1351;-71
2023/11/23 08:19:30;;;;;;;;;;;19.90;64.60;;;;;;4993037;28;1986;-71
2023/11/23 08:21:56;;;;;;;;;;;19.90;64.60;;;;;;4988960;28;1311;-72
2023/11/23 08:24:21;;;;;;;;;;;19.90;64.60;;;;;;4987496;28;1245;-71
2023/11/23 08:26:47;;;;;;;;;;;19.90;64.60;;;;;;5002255;28;2017;-72
2023/11/23 08:29:12;;;;;;;;;;;19.90;64.60;;;;;;5003423;28;1250;-72
2023/11/23 08:31:38;;;;;;;;;;;19.90;64.60;;;;;;5005684;28;1444;-72
2023/11/23 08:34:03;;;;;;;;;;;19.90;64.90;;;;;;5005756;28;1613;-72
2023/11/23 08:36:29;;;;;;;;;;;19.90;64.50;;;;;;5008380;28;1358;-72
2023/11/23 08:38:54;;;;;;;;;;;19.90;64.50;;;;;;4984499;28;1914;-72
2023/11/23 08:41:24;;;;;;;;;;;19.90;64.50;;;;;;5003989;28;1442;-72
2023/11/23 08:43:49;;;;;;;;;;;19.90;64.50;;;;;;4991240;28;1561;-72
2023/11/23 08:46:15;;;;;;;;;;;19.90;64.60;;;;;;5004138;28;1426;-72
2023/11/23 08:48:41;;;;;;;;;;;19.90;64.60;;;;;;5003330;28;1215;-72
2023/11/23 08:51:06;;;;;;;;;;;19.90;64.60;;;;;;5001831;28;1186;-72
2023/11/23 08:53:32;;;;;;;;;;;19.80;64.50;;;;;;5004342;28;1443;-74
2023/11/23 08:55:57;;;;;;;;;;;19.90;64.60;;;;;;4994126;28;1158;-74
2023/11/23 08:58:23;;;;;;;;;;;19.90;64.70;;;;;;4990992;28;1387;-73
2023/11/23 09:00:49;;;;;;;;;;;19.90;64.70;;;;;;4988257;28;1914;-73
2023/11/23 09:03:14;;;;;;;;;;;19.90;64.80;;;;;;5002126;28;1540;-73
2023/11/23 09:05:40;;;;;;;;;;;19.80;64.80;;;;;;4992482;28;1528;-73
2023/11/23 09:08:09;;;;;;;;;;;19.80;64.80;;;;;;4992368;28;1488;-72
2023/11/23 09:10:34;;;;;;;;;;;19.80;64.80;;;;;;5004726;28;1353;-72
2023/11/23 09:13:01;;;;;;;;;;;19.80;64.80;;;;;;5003381;28;1500;-72
2023/11/23 09:15:28;;;;;;;;;;;19.80;64.80;;;;;;5004677;28;1435;-72
2023/11/23 09:17:53;;;;;;;;;;;19.80;64.80;;;;;;5003445;28;1664;-71
2023/11/23 09:20:19;;;;;;;;;;;19.80;64.80;;;;;;5003266;28;1907;-70
2023/11/23 09:22:44;;;;;;;;;;;19.90;64.70;;;;;;5005196;28;1328;-72
2023/11/23 09:25:09;;;;;;;;;;;19.80;64.70;;;;;;4987956;28;1447;-72
2023/11/23 09:27:36;;;;;;;;;;;19.90;64.70;;;;;;5002867;28;1406;-70
2023/11/23 09:30:06;;;;;;;;;;;19.90;64.70;;;;;;4985077;28;1665;-72
2023/11/23 09:32:38;;;;;;;;;;;19.90;64.60;;;;;;5006325;28;1227;-72
2023/11/23 09:35:08;;;;;;;;;;;19.90;64.60;;;;;;5002117;28;1354;-72
2023/11/23 09:37:33;;;;;;;;;;;19.90;64.60;;;;;;4986418;28;1322;-72
2023/11/23 09:39:59;;;;;;;;;;;19.90;64.60;;;;;;5002314;28;1910;-73
2023/11/23 09:42:26;;;;;;;;;;;19.90;65.30;;;;;;4987972;28;1197;-72
2023/11/23 09:44:56;;;;;;;;;;;19.90;64.50;;;;;;4983162;28;1308;-73
2023/11/23 09:47:30;;;;;;;;;;;20.00;64.50;;;;;;4992068;28;905;-71
2023/11/23 09:49:55;;;;;;;;;;;20.00;64.50;;;;;;5003490;28;1596;-72
2023/11/23 09:52:21;;;;;;;;;;;19.90;64.40;;;;;;5002592;28;876;-73
2023/11/23 09:54:48;;;;;;;;;;;19.90;64.50;;;;;;4989653;28;1782;-71
2023/11/23 09:57:14;;;;;;;;;;;19.90;64.50;;;;;;4982234;28;1260;-72
2023/11/23 09:59:39;;;;;;;;;;;19.90;64.50;;;;;;4987460;28;1898;-72
2023/11/23 10:02:05;;;;;;;;;;;19.90;64.50;;;;;;4999792;28;1467;-71
2023/11/23 10:04:31;;;;;;;;;;;19.90;64.50;;;;;;4986057;28;1508;-72
2023/11/23 10:06:56;;;;;;;;;;;19.90;64.60;;;;;;5001611;28;1471;-72
2023/11/23 10:09:26;;;;;;;;;;;19.90;64.60;;;;;;4990382;28;1572;-72
2023/11/23 10:11:54;;;;;;;;;;;19.90;64.60;;;;;;5002587;28;1360;-72
2023/11/23 10:14:19;;;;;;;;;;;19.90;64.60;;;;;;4982403;28;1481;-72
2023/11/23 10:16:46;;;;;;;;;;;19.80;64.60;;;;;;5003379;28;1500;-72
2023/11/23 10:19:18;;;;;;;;;;;19.80;64.70;;;;;;5002144;28;1910;-72
2023/11/23 10:21:44;;;;;;;;;;;19.90;64.70;;;;;;4990593;28;1369;-72
2023/11/23 10:24:11;;;;;;;;;;;19.90;64.70;;;;;;5002456;28;1360;-72
2023/11/23 10:26:37;;;;;;;;;;;19.90;64.70;;;;;;4990196;28;1288;-72
2023/11/23 10:29:03;;;;;;;;;;;19.90;65.50;;;;;;5001265;28;1828;-72
2023/11/23 10:31:30;;;;;;;;;;;19.90;64.70;;;;;;5002512;28;1248;-71
2023/11/23 10:33:56;;;;;;;;;;;19.90;64.70;;;;;;4984567;28;1382;-72
2023/11/23 10:36:22;;;;;;;;;;;19.80;64.60;;;;;;4982650;28;1245;-72
2023/11/23 10:38:47;;;;;;;;;;;19.90;64.70;;;;;;4981523;28;1302;-73
2023/11/23 10:41:14;;;;;;;;;;;19.80;64.70;;;;;;4982826;28;1978;-72
2023/11/23 10:43:41;;;;;;;;;;;19.90;64.60;;;;;;4990055;28;1297;-72
2023/11/23 10:46:08;;;;;;;;;;;19.90;64.70;;;;;;4981597;28;1555;-72
2023/11/23 10:48:34;;;;;;;;;;;19.90;64.60;;;;;;4983719;28;1315;-72
2023/11/23 10:51:03;;;;;;;;;;;19.90;64.60;;;;;;5001918;28;1388;-72
2023/11/23 10:53:29;;;;;;;;;;;19.90;64.60;;;;;;4999468;28;1351;-73
2023/11/23 10:55:55;;;;;;;;;;;19.90;64.60;;;;;;4984281;28;1486;-72
2023/11/23 10:58:20;;;;;;;;;;;19.90;64.60;;;;;;5002631;28;1454;-72
2023/11/23 11:00:45;;;;;;;;;;;19.90;64.60;;;;;;4986408;28;1930;-72
2023/11/23 11:03:11;;;;;;;;;;;19.90;64.60;;;;;;4983936;28;1506;-71
2023/11/23 11:05:39;;;;;;;;;;;19.80;64.60;;;;;;4998687;28;1406;-71
2023/11/23 11:08:05;;;;;;;;;;;19.90;64.60;;;;;;4998562;28;1287;-71
2023/11/23 11:10:37;;;;;;;;;;;19.80;64.60;;;;;;4990523;28;1343;-71
2023/11/23 11:13:04;;;;;;;;;;;19.80;64.70;;;;;;5001138;28;1336;-71
2023/11/23 11:15:29;;;;;;;;;;;19.80;64.70;;;;;;5003134;28;1360;-71
2023/11/23 11:18:01;;;;;;;;;;;19.80;64.80;;;;;;4995592;28;1353;-71
2023/11/23 11:20:28;;;;;;;;;;;19.80;64.80;;;;;;5004450;28;1975;-71
2023/11/23 11:22:54;;;;;;;;;;;19.80;64.80;;;;;;4985646;28;1463;-71
2023/11/23 11:25:21;;;;;;;;;;;19.80;64.90;;;;;;5000031;28;1853;-71
2023/11/23 11:27:48;;;;;;;;;;;19.80;64.90;;;;;;4989633;28;1436;-71
2023/11/23 11:30:14;;;;;;;;;;;19.80;65.00;;;;;;4997259;28;1519;-71
2023/11/23 11:32:40;;;;;;;;;;;19.80;65.00;;;;;;4998691;28;1379;-70
2023/11/23 11:35:07;;;;;;;;;;;19.70;65.00;;;;;;5000046;28;1379;-71
2023/11/23 11:37:32;;;;;;;;;;;19.70;65.00;;;;;;4987020;28;1397;-71
2023/11/23 11:39:59;;;;;;;;;;;19.70;65.00;;;;;;4990000;28;1898;-71
2023/11/23 11:42:24;;;;;;;;;;;19.70;65.00;;;;;;5000140;28;1357;-71
2023/11/23 11:44:51;;;;;;;;;;;19.70;65.70;;;;;;4999784;28;1268;-71
2023/11/23 11:47:16;;;;;;;;;;;19.70;65.00;;;;;;4999950;28;2257;-71
2023/11/23 11:49:42;;;;;;;;;;;19.70;65.00;;;;;;5002570;28;1916;-70
2023/11/23 11:52:12;;;;;;;;;;;19.70;65.00;;;;;;5000277;28;1647;-71
2023/11/23 11:54:38;;;;;;;;;;;19.70;64.90;;;;;;4984624;28;1599;-71
2023/11/23 11:57:03;;;;;;;;;;;19.70;64.90;;;;;;4977542;28;1332;-69
2023/11/23 11:59:30;;;;;;;;;;;19.80;64.90;;;;;;4992603;28;1902;-71
2023/11/23 12:01:56;;;;;;;;;;;19.80;64.90;;;;;;5003464;28;1465;-72
2023/11/23 12:04:21;;;;;;;;;;;19.80;64.90;;;;;;5003487;28;1386;-72
2023/11/23 12:06:50;;;;;;;;;;;19.80;64.90;;;;;;4993892;28;1394;-72
2023/11/23 12:09:19;;;;;;;;;;;19.70;64.80;;;;;;5004709;28;1461;-72
2023/11/23 12:11:48;;;;;;;;;;;19.80;64.90;;;;;;4987576;28;1537;-71
2023/11/23 12:14:13;;;;;;;;;;;19.80;64.90;;;;;;4986479;28;1383;-71
2023/11/23 12:16:39;;;;;;;;;;;19.70;64.80;;;;;;4976036;28;1402;-71
2023/11/23 12:19:17;;;;;;;;;;;19.70;64.90;;;;;;5002502;28;1967;-71
2023/11/23 12:21:42;;;;;;;;;;;19.80;65.00;;;;;;5003570;28;1465;-71
2023/11/23 12:24:09;;;;;;;;;;;19.70;65.00;;;;;;4988880;28;1363;-71
2023/11/23 12:26:37;;;;;;;;;;;19.70;65.00;;;;;;5008492;28;1470;-71
2023/11/23 12:29:03;;;;;;;;;;;19.70;65.00;;;;;;5004643;28;1301;-72
2023/11/23 12:31:29;;;;;;;;;;;19.70;65.00;;;;;;5004617;28;1262;-72
2023/11/23 12:33:54;;;;;;;;;;;19.70;65.10;;;;;;5003239;28;1740;-73
2023/11/23 12:36:20;;;;;;;;;;;19.70;65.10;;;;;;4985314;28;1904;-74
2023/11/23 12:38:46;;;;;;;;;;;19.70;65.10;;;;;;4985943;28;1494;-74
2023/11/23 12:41:11;;;;;;;;;;;19.70;65.10;;;;;;4990933;28;1985;-73
2023/11/23 12:43:37;;;;;;;;;;;19.70;65.10;;;;;;5001811;28;1517;-73
2023/11/23 12:46:02;;;;;;;;;;;19.70;65.10;;;;;;5002560;28;1670;-74
2023/11/23 12:48:28;;;;;;;;;;;19.70;65.10;;;;;;5003857;28;1452;-73
2023/11/23 12:50:53;;;;;;;;;;;19.70;65.00;;;;;;5003802;28;1346;-73
2023/11/23 12:53:19;;;;;;;;;;;19.70;65.00;;;;;;5002849;28;921;-73
2023/11/23 12:55:44;;;;;;;;;;;19.70;65.00;;;;;;5006246;28;1384;-74
2023/11/23 12:58:10;;;;;;;;;;;19.70;65.00;;;;;;5000014;28;994;-74
2023/11/23 13:00:36;;;;;;;;;;;19.70;65.00;;;;;;5000542;28;1911;-72
2023/11/23 13:03:04;;;;;;;;;;;19.70;64.90;;;;;;5003928;28;1348;-72
2023/11/23 13:05:30;;;;;;;;;;;19.70;64.90;;;;;;5003352;28;1548;-74
2023/11/23 13:07:55;;;;;;;;;;;19.80;64.90;;;;;;4987457;28;2023;-73
2023/11/23 13:10:22;;;;;;;;;;;19.80;64.90;;;;;;5001921;28;2005;-72
2023/11/23 13:12:54;;;;;;;;;;;19.80;64.90;;;;;;5000999;28;1289;-73
2023/11/23 13:15:20;;;;;;;;;;;19.80;64.90;;;;;;5005483;28;1407;-73
2023/11/23 13:17:46;;;;;;;;;;;19.80;64.90;;;;;;5000393;28;1380;-72
2023/11/23 13:20:14;;;;;;;;;;;19.70;64.80;;;;;;5004811;28;1993;-72
2023/11/23 13:22:41;;;;;;;;;;;19.80;64.80;;;;;;4981543;28;1476;-72
2023/11/23 13:25:07;;;;;;;;;;;19.80;64.80;;;;;;5002663;28;1355;-72
2023/11/23 13:27:33;;;;;;;;;;;19.80;64.90;;;;;;4986866;28;1357;-72
2023/11/23 13:30:02;;;;;;;;;;;19.80;64.90;;;;;;5002846;28;1404;-72
2023/11/23 13:32:28;;;;;;;;;;;19.70;64.80;;;;;;5002444;28;1415;-72
2023/11/23 13:34:54;;;;;;;;;;;19.70;64.90;;;;;;4999822;28;1346;-72
2023/11/23 13:37:19;;;;;;;;;;;19.70;64.90;;;;;;5000518;28;1367;-72
2023/11/23 13:39:47;;;;;;;;;;;19.70;64.90;;;;;;4984470;28;1957;-72
2023/11/23 13:42:14;;;;;;;;;;;19.70;64.90;;;;;;5002524;28;1507;-72
2023/11/23 13:44:40;;;;;;;;;;;19.70;65.00;;;;;;5002909;28;1336;-71
2023/11/23 13:47:06;;;;;;;;;;;19.70;65.00;;;;;;5001214;28;1455;-72
2023/11/23 13:49:32;;;;;;;;;;;19.70;65.00;;;;;;5003887;28;1585;-74
2023/11/23 13:51:58;;;;;;;;;;;19.70;65.10;;;;;;4999878;28;1548;-74
2023/11/23 13:54:23;;;;;;;;;;;19.70;65.10;;;;;;5003549;28;1384;-73
2023/11/23 13:56:49;;;;;;;;;;;19.70;65.10;;;;;;5003708;28;1390;-73
2023/11/23 13:59:14;;;;;;;;;;;19.70;65.10;;;;;;5001342;28;1966;-73
2023/11/23 14:01:40;;;;;;;;;;;19.70;65.10;;;;;;5003682;28;1475;-74
2023/11/23 14:04:06;;;;;;;;;;;19.70;65.10;;;;;;4985014;28;1320;-73
2023/11/23 14:06:31;;;;;;;;;;;19.70;65.10;;;;;;5003575;28;1484;-73
2023/11/23 14:08:57;;;;;;;;;;;19.70;65.10;;;;;;4986235;28;1476;-74
2023/11/23 14:11:22;;;;;;;;;;;19.70;65.10;;;;;;5000996;28;1253;-73
2023/11/23 14:13:50;;;;;;;;;;;19.70;65.00;;;;;;5003441;28;1280;-73
2023/11/23 14:16:15;;;;;;;;;;;19.70;65.00;;;;;;4990538;28;1218;-74
2023/11/23 14:18:41;;;;;;;;;;;19.70;65.00;;;;;;4991462;28;1344;-73
2023/11/23 14:21:07;;;;;;;;;;;19.70;65.00;;;;;;5000077;28;1899;-74
2023/11/23 14:23:34;;;;;;;;;;;19.70;65.00;;;;;;4990792;28;1553;-74